Time;durP1;ratioP1;P1;durP2;ratioP2;P2;SDS_P1;SDS_P2;PMS_P1;PMS_P2;Temp;Humidity;BMP_temperature;BMP_pressure;BME280_temperature;BME280_humidity;BME280_pressure;Samples;Min_cycle;Max_cycle;Signal;HPM_P1;HPM_P2
2022/01/15 00:00:44;;;;;;;27.17;17.20;;;;;;;;;;5118613;27;20065;-80
2022/01/15 00:03:11;;;;;;;31.30;14.23;;;;;;;;;;5136770;27;20095;-80
2022/01/15 00:05:37;;;;;;;23.52;12.30;;;;;;;;;;5118175;27;20407;-80
2022/01/15 00:08:04;;;;;;;22.13;11.95;;;;;;;;;;5136744;27;20042;-80
2022/01/15 00:10:30;;;;;;;23.92;12.00;;;;;;;;;;5136315;27;20135;-80
2022/01/15 00:12:57;;;;;;;26.80;11.90;;;;;;;;;;5118435;27;20092;-80
2022/01/15 00:15:31;;;;;;;33.20;13.90;;;;;;;;;;5118029;27;20088;-80
2022/01/15 00:18:05;;;;;;;23.65;11.57;;;;;;;;;;5101246;27;20054;-80
2022/01/15 00:20:31;;;;;;;22.17;11.50;;;;;;;;;;5136656;27;20046;-81
2022/01/15 00:22:58;;;;;;;22.77;10.10;;;;;;;;;;5118272;27;20117;-80
2022/01/15 00:25:25;;;;;;;23.25;10.73;;;;;;;;;;5136291;27;20086;-80
2022/01/15 00:27:51;;;;;;;28.75;9.68;;;;;;;;;;5136216;27;20081;-81
2022/01/15 00:30:18;;;;;;;14.95;8.20;;;;;;;;;;5136205;27;20112;-80
2022/01/15 00:32:44;;;;;;;22.83;8.95;;;;;;;;;;5136089;27;20047;-81
2022/01/15 00:35:12;;;;;;;20.33;9.13;;;;;;;;;;5117486;27;20046;-81
2022/01/15 00:37:39;;;;;;;18.52;8.95;;;;;;;;;;5117670;27;20046;-81
2022/01/15 00:40:07;;;;;;;23.83;9.48;;;;;;;;;;5136350;27;20047;-81
2022/01/15 00:42:35;;;;;;;23.75;9.27;;;;;;;;;;5136056;27;20385;-81
2022/01/15 00:45:02;;;;;;;22.10;9.40;;;;;;;;;;5135895;27;20051;-81
2022/01/15 00:47:31;;;;;;;26.27;10.10;;;;;;;;;;5117893;27;20101;-81
2022/01/15 00:49:58;;;;;;;12.13;5.60;;;;;;;;;;5135901;27;20079;-81
2022/01/15 00:52:24;;;;;;;11.80;6.55;;;;;;;;;;5135925;27;20047;-82
2022/01/15 00:54:50;;;;;;;7.20;3.55;;;;;;;;;;5135794;27;20101;-81
2022/01/15 00:57:16;;;;;;;6.15;3.40;;;;;;;;;;5135844;27;20043;-81
2022/01/15 00:59:42;;;;;;;7.57;4.43;;;;;;;;;;5100383;27;20134;-80
2022/01/15 01:02:08;;;;;;;8.55;4.30;;;;;;;;;;5135865;27;20047;-82
2022/01/15 01:04:35;;;;;;;10.00;4.90;;;;;;;;;;5135611;27;20496;-82
2022/01/15 01:07:01;;;;;;;9.65;5.13;;;;;;;;;;5117318;27;20113;-81
2022/01/15 01:09:39;;;;;;;6.72;3.45;;;;;;;;;;5135455;27;20435;-81
2022/01/15 01:12:22;;;;;;;4.93;2.50;;;;;;;;;;5117163;27;20050;-82
2022/01/15 01:20:26;;;;;;;7.40;3.60;;;;;;;;;;5135539;27;20488;-81
2022/01/15 01:22:57;;;;;;;5.90;3.15;;;;;;;;;;5135168;27;20463;-82
2022/01/15 01:25:28;;;;;;;7.28;3.78;;;;;;;;;;5135346;27;20051;-82
2022/01/15 01:28:02;;;;;;;6.63;3.13;;;;;;;;;;5135155;27;20047;-81
2022/01/15 01:30:35;;;;;;;5.40;2.88;;;;;;;;;;5135066;27;20051;-81
2022/01/15 01:33:50;;;;;;;5.80;3.05;;;;;;;;;;5135004;27;20544;-81
2022/01/15 01:35:59;;;;;;;6.60;3.03;;;;;;;;;;5123587;27;20058;-81
2022/01/15 01:38:33;;;;;;;5.97;3.40;;;;;;;;;;5135082;27;20047;-81
2022/01/15 01:41:01;;;;;;;5.60;3.20;;;;;;;;;;5134968;27;20043;-81
2022/01/15 01:48:38;;;;;;;5.25;3.05;;;;;;;;;;5134297;27;20133;-81
2022/01/15 01:51:08;;;;;;;5.68;3.30;;;;;;;;;;5116029;27;20437;-81
2022/01/15 01:53:38;;;;;;;6.40;3.90;;;;;;;;;;5099321;27;20051;-81
2022/01/15 01:56:05;;;;;;;5.90;3.42;;;;;;;;;;5116156;27;20528;-82
2022/01/15 01:58:31;;;;;;;6.05;3.17;;;;;;;;;;5116663;27;20082;-82
2022/01/15 02:00:57;;;;;;;5.95;2.92;;;;;;;;;;5134544;27;20122;-82
2022/01/15 02:03:23;;;;;;;7.80;3.30;;;;;;;;;;5116369;27;20045;-81
2022/01/15 02:05:49;;;;;;;6.05;2.60;;;;;;;;;;5116211;27;20371;-81
2022/01/15 02:08:16;;;;;;;5.70;2.63;;;;;;;;;;5116235;27;20484;-81
2022/01/15 02:10:43;;;;;;;4.90;2.50;;;;;;;;;;5115870;27;20051;-82
2022/01/15 02:13:10;;;;;;;5.88;2.55;;;;;;;;;;5116326;27;20126;-81
2022/01/15 02:15:36;;;;;;;6.50;2.70;;;;;;;;;;5134523;27;20527;-81
2022/01/15 02:18:02;;;;;;;7.35;2.85;;;;;;;;;;5116198;27;20123;-81
2022/01/15 02:25:53;;;;;;;6.40;2.90;;;;;;;;;;5134045;27;20047;-81
2022/01/15 02:28:21;;;;;;;6.97;2.70;;;;;;;;;;5115848;27;20043;-82
2022/01/15 02:30:51;;;;;;;5.90;2.63;;;;;;;;;;5115451;27;20047;-82
2022/01/15 02:33:17;;;;;;;7.32;2.80;;;;;;;;;;5133681;27;20471;-82
2022/01/15 02:35:43;;;;;;;5.45;2.80;;;;;;;;;;5133801;27;20043;-82
2022/01/15 02:38:12;;;;;;;7.60;2.67;;;;;;;;;;5115849;27;20054;-82
2022/01/15 02:40:38;;;;;;;6.57;3.15;;;;;;;;;;5133704;27;20412;-81
2022/01/15 02:43:17;;;;;;;4.97;2.55;;;;;;;;;;5133828;27;20126;-82
2022/01/15 02:45:46;;;;;;;6.97;2.80;;;;;;;;;;5133732;27;20043;-82
2022/01/15 02:48:13;;;;;;;6.95;2.65;;;;;;;;;;5133582;27;20043;-82
2022/01/15 02:50:40;;;;;;;6.18;2.70;;;;;;;;;;5133710;27;20047;-82
2022/01/15 02:53:07;;;;;;;6.38;3.10;;;;;;;;;;5133687;27;20050;-81
2022/01/15 02:55:33;;;;;;;6.82;2.85;;;;;;;;;;5115249;27;20051;-81
2022/01/15 02:57:59;;;;;;;5.78;2.92;;;;;;;;;;5133094;27;20071;-81
2022/01/15 03:00:26;;;;;;;11.23;3.25;;;;;;;;;;5133417;27;20050;-81
2022/01/15 03:02:52;;;;;;;6.47;3.15;;;;;;;;;;5115001;28;20380;-82
2022/01/15 03:05:20;;;;;;;6.90;3.13;;;;;;;;;;5133600;28;20122;-82
2022/01/15 03:07:46;;;;;;;6.85;3.08;;;;;;;;;;5133422;28;20114;-82
2022/01/15 03:10:13;;;;;;;7.80;3.35;;;;;;;;;;5115049;28;20043;-81
2022/01/15 03:12:39;;;;;;;6.82;3.38;;;;;;;;;;5115392;28;20053;-82
2022/01/15 03:15:07;;;;;;;8.40;3.38;;;;;;;;;;5115154;28;20414;-81
2022/01/15 03:17:33;;;;;;;6.45;3.22;;;;;;;;;;5133586;28;20035;-82
2022/01/15 03:20:00;;;;;;;6.65;3.20;;;;;;;;;;5133138;28;20130;-83
2022/01/15 03:22:26;;;;;;;7.07;3.00;;;;;;;;;;5133437;28;20045;-82
2022/01/15 03:24:52;;;;;;;6.65;3.00;;;;;;;;;;5133116;28;20151;-81
2022/01/15 03:27:23;;;;;;;6.50;3.05;;;;;;;;;;5115175;28;20473;-81
2022/01/15 03:29:49;;;;;;;7.07;3.00;;;;;;;;;;5132933;28;20039;-81
2022/01/15 03:32:16;;;;;;;9.40;2.65;;;;;;;;;;5115125;28;20130;-82
2022/01/15 03:34:42;;;;;;;6.70;3.25;;;;;;;;;;5133370;28;20087;-82
2022/01/15 03:37:08;;;;;;;5.55;3.05;;;;;;;;;;5133054;28;20043;-82
2022/01/15 03:39:35;;;;;;;5.70;2.85;;;;;;;;;;5114915;28;20146;-81
2022/01/15 03:42:02;;;;;;;7.60;2.92;;;;;;;;;;5133094;28;20039;-81
2022/01/15 03:44:28;;;;;;;7.40;3.50;;;;;;;;;;5133052;28;20055;-82
2022/01/15 03:46:54;;;;;;;5.68;3.00;;;;;;;;;;5132896;28;20499;-82
2022/01/15 03:49:20;;;;;;;6.65;2.88;;;;;;;;;;5133263;28;20039;-82
2022/01/15 03:51:46;;;;;;;6.40;3.30;;;;;;;;;;5133113;28;20054;-82
2022/01/15 03:54:12;;;;;;;6.00;3.00;;;;;;;;;;5132958;28;20122;-81
2022/01/15 03:56:38;;;;;;;6.28;3.50;;;;;;;;;;5114636;28;20082;-82
2022/01/15 03:59:04;;;;;;;6.07;3.28;;;;;;;;;;5132794;28;20075;-82
2022/01/15 04:01:31;;;;;;;5.43;2.50;;;;;;;;;;5133376;28;20549;-82
2022/01/15 04:03:57;;;;;;;5.47;2.97;;;;;;;;;;5114736;28;20122;-81
2022/01/15 04:06:23;;;;;;;5.03;2.28;;;;;;;;;;5133016;28;20389;-82
2022/01/15 04:08:49;;;;;;;5.90;2.83;;;;;;;;;;5132977;27;20035;-81
2022/01/15 04:11:15;;;;;;;6.35;3.10;;;;;;;;;;5135616;27;20035;-82
2022/01/15 04:13:41;;;;;;;6.57;2.78;;;;;;;;;;5136568;27;20042;-81
2022/01/15 04:16:07;;;;;;;6.10;3.35;;;;;;;;;;5136772;27;20043;-81
2022/01/15 04:18:40;;;;;;;7.68;3.17;;;;;;;;;;5136575;27;20035;-81
2022/01/15 04:21:09;;;;;;;5.70;2.95;;;;;;;;;;5136562;27;20035;-81
2022/01/15 04:23:35;;;;;;;7.72;3.63;;;;;;;;;;5118086;27;20053;-81
2022/01/15 04:26:01;;;;;;;6.75;3.28;;;;;;;;;;5136202;27;20074;-81
2022/01/15 04:28:28;;;;;;;7.35;3.60;;;;;;;;;;5136479;27;20047;-82
2022/01/15 04:30:55;;;;;;;8.05;3.63;;;;;;;;;;5136004;27;20073;-81
2022/01/15 04:33:21;;;;;;;7.35;3.78;;;;;;;;;;5136338;27;20433;-81
2022/01/15 04:35:47;;;;;;;6.45;3.75;;;;;;;;;;5136348;27;20377;-82
2022/01/15 04:38:14;;;;;;;9.50;3.80;;;;;;;;;;5117729;27;20118;-81
2022/01/15 04:40:40;;;;;;;8.82;3.70;;;;;;;;;;5135966;27;20039;-82
2022/01/15 04:43:06;;;;;;;8.95;3.63;;;;;;;;;;5136234;27;20323;-81
2022/01/15 04:45:32;;;;;;;7.07;3.95;;;;;;;;;;5136136;27;20497;-81
2022/01/15 04:47:59;;;;;;;8.50;3.92;;;;;;;;;;5117671;27;20055;-80
2022/01/15 04:50:25;;;;;;;8.52;3.83;;;;;;;;;;5135941;27;20472;-81
2022/01/15 04:52:51;;;;;;;7.75;3.95;;;;;;;;;;5135864;27;20368;-81
2022/01/15 04:55:17;;;;;;;7.13;3.63;;;;;;;;;;5135705;27;20130;-81
2022/01/15 04:57:44;;;;;;;7.93;3.75;;;;;;;;;;5135685;27;20050;-81
2022/01/15 05:00:12;;;;;;;9.73;3.72;;;;;;;;;;5136028;27;20050;-81
2022/01/15 05:02:38;;;;;;;9.18;3.88;;;;;;;;;;5117325;27;20079;-82
2022/01/15 05:05:04;;;;;;;8.13;3.67;;;;;;;;;;5135603;27;20074;-81
2022/01/15 05:07:31;;;;;;;8.43;3.72;;;;;;;;;;5117133;27;20069;-82
2022/01/15 05:09:57;;;;;;;6.70;3.55;;;;;;;;;;5135443;27;20134;-81
2022/01/15 05:14:52;;;;;;;9.07;3.60;;;;;;;;;;5135203;27;20483;-81
2022/01/15 05:17:18;;;;;;;7.15;3.50;;;;;;;;;;5135369;27;20550;-81
2022/01/15 05:19:44;;;;;;;7.13;3.15;;;;;;;;;;5135471;27;20058;-81
2022/01/15 05:22:10;;;;;;;6.93;3.33;;;;;;;;;;5135034;27;20039;-81
2022/01/15 05:24:36;;;;;;;8.05;3.60;;;;;;;;;;5134930;27;20090;-81
2022/01/15 05:27:03;;;;;;;9.55;3.38;;;;;;;;;;5135271;27;20100;-81
2022/01/15 05:29:29;;;;;;;7.97;3.47;;;;;;;;;;5117056;27;20035;-81
2022/01/15 05:31:55;;;;;;;9.27;3.67;;;;;;;;;;5135085;27;20492;-81
2022/01/15 05:34:21;;;;;;;8.07;3.65;;;;;;;;;;5135053;27;20122;-81
2022/01/15 05:36:47;;;;;;;9.65;3.35;;;;;;;;;;5116398;27;20050;-81
2022/01/15 05:39:14;;;;;;;9.98;4.05;;;;;;;;;;5134832;27;20388;-81
2022/01/15 05:41:40;;;;;;;9.88;3.90;;;;;;;;;;5134996;27;20527;-81
2022/01/15 05:44:06;;;;;;;8.10;3.50;;;;;;;;;;5116617;27;20122;-81
2022/01/15 05:46:33;;;;;;;10.65;4.20;;;;;;;;;;5116662;27;20047;-82
2022/01/15 05:49:00;;;;;;;9.38;3.88;;;;;;;;;;5134763;27;20050;-81
2022/01/15 05:51:29;;;;;;;10.68;3.90;;;;;;;;;;5134547;27;20457;-81
2022/01/15 05:53:59;;;;;;;11.77;3.67;;;;;;;;;;5134470;27;20452;-81
2022/01/15 05:56:25;;;;;;;8.52;3.63;;;;;;;;;;5134626;27;20117;-81
2022/01/15 05:58:51;;;;;;;9.20;3.88;;;;;;;;;;5134564;27;20122;-81
2022/01/15 06:01:18;;;;;;;9.20;3.70;;;;;;;;;;5134596;27;20506;-81
2022/01/15 06:03:44;;;;;;;9.30;4.18;;;;;;;;;;5116224;27;20035;-81
2022/01/15 06:06:10;;;;;;;8.23;3.88;;;;;;;;;;5115991;27;20120;-80
2022/01/15 06:08:36;;;;;;;7.85;3.58;;;;;;;;;;5134408;27;20468;-81
2022/01/15 06:11:02;;;;;;;9.25;3.88;;;;;;;;;;5134261;27;20493;-81
2022/01/15 06:13:28;;;;;;;9.32;4.20;;;;;;;;;;5116051;27;20086;-81
2022/01/15 06:15:54;;;;;;;7.95;3.72;;;;;;;;;;5134267;27;20130;-80
2022/01/15 06:18:20;;;;;;;8.60;3.90;;;;;;;;;;5116151;27;20043;-81
2022/01/15 06:20:47;;;;;;;8.63;4.25;;;;;;;;;;5115857;27;20458;-81
2022/01/15 06:23:13;;;;;;;10.00;4.20;;;;;;;;;;5134133;27;20043;-81
2022/01/15 06:25:39;;;;;;;13.90;5.28;;;;;;;;;;5134259;27;20035;-81
2022/01/15 06:28:05;;;;;;;11.13;4.75;;;;;;;;;;5134080;27;20117;-81
2022/01/15 06:30:31;;;;;;;10.35;4.82;;;;;;;;;;5115415;27;20105;-81
2022/01/15 06:32:57;;;;;;;11.18;4.88;;;;;;;;;;5114846;27;20047;-81
2022/01/15 06:35:23;;;;;;;13.23;4.90;;;;;;;;;;5133945;27;20042;-81
2022/01/15 06:37:50;;;;;;;11.07;5.25;;;;;;;;;;5133959;27;20047;-81
2022/01/15 06:40:17;;;;;;;12.98;5.45;;;;;;;;;;5133854;27;20483;-81
2022/01/15 06:42:43;;;;;;;13.60;5.00;;;;;;;;;;5115435;27;20074;-82
2022/01/15 06:45:09;;;;;;;15.15;6.00;;;;;;;;;;5115666;27;20098;-81
2022/01/15 06:47:36;;;;;;;16.60;6.28;;;;;;;;;;5133806;27;20440;-81
2022/01/15 06:50:04;;;;;;;12.82;5.70;;;;;;;;;;5133918;27;20050;-81
2022/01/15 06:52:34;;;;;;;11.05;5.47;;;;;;;;;;5115478;28;20089;-81
2022/01/15 06:55:00;;;;;;;14.35;5.93;;;;;;;;;;5115688;27;20050;-81
2022/01/15 06:57:27;;;;;;;12.20;6.00;;;;;;;;;;5133672;27;20039;-81
2022/01/15 06:59:53;;;;;;;12.48;5.82;;;;;;;;;;5133586;27;20463;-81
2022/01/15 07:02:20;;;;;;;13.75;6.30;;;;;;;;;;5133520;27;20035;-82
2022/01/15 07:04:46;;;;;;;17.75;6.28;;;;;;;;;;5133774;27;20043;-81
2022/01/15 07:07:13;;;;;;;12.07;5.45;;;;;;;;;;5133735;28;20097;-81
2022/01/15 07:09:39;;;;;;;15.20;6.68;;;;;;;;;;5133489;28;20088;-81
2022/01/15 07:12:05;;;;;;;16.90;8.30;;;;;;;;;;5115360;28;20546;-81
2022/01/15 07:14:31;;;;;;;13.43;5.70;;;;;;;;;;5133458;28;20041;-81
2022/01/15 07:16:58;;;;;;;15.25;5.22;;;;;;;;;;5115315;28;20054;-81
2022/01/15 07:19:24;;;;;;;10.07;4.88;;;;;;;;;;5115599;28;20086;-81
2022/01/15 07:21:50;;;;;;;11.23;5.60;;;;;;;;;;5133524;28;20043;-80
2022/01/15 07:24:16;;;;;;;13.60;5.85;;;;;;;;;;5133524;28;20369;-81
2022/01/15 07:26:43;;;;;;;15.80;6.00;;;;;;;;;;5115370;28;20911;-81
2022/01/15 07:29:14;;;;;;;14.80;6.28;;;;;;;;;;5133381;28;20091;-81
2022/01/15 07:31:42;;;;;;;12.82;5.70;;;;;;;;;;5115101;28;20126;-81
2022/01/15 07:34:08;;;;;;;12.55;5.85;;;;;;;;;;5133656;28;20047;-81
2022/01/15 07:36:34;;;;;;;13.55;6.13;;;;;;;;;;5115263;28;20126;-81
2022/01/15 07:39:00;;;;;;;13.27;5.93;;;;;;;;;;5133230;28;20039;-81
2022/01/15 07:41:27;;;;;;;16.23;6.22;;;;;;;;;;5114425;27;20043;-81
2022/01/15 07:43:53;;;;;;;14.82;6.53;;;;;;;;;;5136139;27;20120;-81
2022/01/15 07:46:19;;;;;;;17.15;6.80;;;;;;;;;;5128242;27;20042;-82
2022/01/15 07:48:45;;;;;;;19.77;7.30;;;;;;;;;;5157216;27;20379;-81
2022/01/15 07:51:11;;;;;;;15.25;7.10;;;;;;;;;;5138630;27;20140;-81
2022/01/15 07:53:37;;;;;;;15.18;6.80;;;;;;;;;;5138184;27;20172;-81
2022/01/15 07:56:03;;;;;;;18.50;7.53;;;;;;;;;;5157079;27;20047;-82
2022/01/15 07:58:30;;;;;;;21.20;8.07;;;;;;;;;;5120729;27;20147;-82
2022/01/15 08:00:56;;;;;;;20.60;8.68;;;;;;;;;;5156262;27;20121;-82
2022/01/15 08:03:22;;;;;;;20.10;9.23;;;;;;;;;;5137852;27;20455;-82
2022/01/15 08:05:48;;;;;;;27.70;12.73;;;;;;;;;;5139125;27;20043;-82
2022/01/15 08:08:15;;;;;;;34.65;14.27;;;;;;;;;;5157243;27;20042;-82
2022/01/15 08:10:42;;;;;;;28.75;14.30;;;;;;;;;;5121667;27;20095;-81
2022/01/15 08:13:08;;;;;;;33.55;15.50;;;;;;;;;;5157025;27;20093;-82
2022/01/15 08:15:34;;;;;;;30.48;14.07;;;;;;;;;;5138756;27;20387;-82
2022/01/15 08:18:01;;;;;;;29.80;14.57;;;;;;;;;;5138894;27;20042;-83
2022/01/15 08:20:27;;;;;;;24.60;12.82;;;;;;;;;;5157086;27;20488;-81
2022/01/15 08:22:53;;;;;;;23.45;12.10;;;;;;;;;;5121611;27;20046;-82
2022/01/15 08:25:20;;;;;;;22.95;12.18;;;;;;;;;;5156969;27;20086;-82
2022/01/15 08:27:47;;;;;;;22.42;12.05;;;;;;;;;;5138637;27;20046;-81
2022/01/15 08:30:14;;;;;;;21.13;11.25;;;;;;;;;;5138557;27;20053;-82
2022/01/15 08:32:40;;;;;;;16.02;9.77;;;;;;;;;;5156998;27;20046;-82
2022/01/15 08:35:07;;;;;;;17.13;9.73;;;;;;;;;;5138468;27;20122;-82
2022/01/15 08:37:34;;;;;;;14.45;9.15;;;;;;;;;;5138228;27;20142;-82
2022/01/15 08:40:00;;;;;;;12.60;7.40;;;;;;;;;;5156817;27;20046;-82
2022/01/15 08:42:26;;;;;;;9.15;5.30;;;;;;;;;;5138579;27;20046;-82
2022/01/15 08:44:53;;;;;;;9.45;5.53;;;;;;;;;;5138393;27;20039;-82
2022/01/15 08:47:19;;;;;;;10.20;5.72;;;;;;;;;;5156644;27;20402;-83
2022/01/15 08:49:45;;;;;;;12.00;7.20;;;;;;;;;;5156563;27;20039;-82
2022/01/15 08:52:11;;;;;;;16.45;9.18;;;;;;;;;;5121039;27;20479;-81
2022/01/15 08:54:37;;;;;;;16.35;9.55;;;;;;;;;;5156408;27;20121;-81
2022/01/15 08:57:04;;;;;;;17.58;11.10;;;;;;;;;;5155801;27;20176;-81
2022/01/15 08:59:30;;;;;;;16.92;10.70;;;;;;;;;;5137985;27;20125;-82
2022/01/15 09:01:56;;;;;;;19.48;10.68;;;;;;;;;;5138223;27;20095;-81
2022/01/15 09:04:23;;;;;;;18.90;11.40;;;;;;;;;;5137880;27;20038;-81
2022/01/15 09:06:49;;;;;;;16.77;9.95;;;;;;;;;;5121032;27;20054;-82
2022/01/15 09:09:15;;;;;;;16.38;9.80;;;;;;;;;;5155938;27;20038;-82
2022/01/15 09:11:41;;;;;;;18.83;10.40;;;;;;;;;;5137504;27;20042;-82
2022/01/15 09:14:08;;;;;;;16.50;9.50;;;;;;;;;;5137858;27;20509;-81
2022/01/15 09:16:34;;;;;;;19.13;10.75;;;;;;;;;;5137571;27;20038;-81
2022/01/15 09:19:00;;;;;;;18.67;10.48;;;;;;;;;;5137893;27;20443;-82
2022/01/15 09:21:26;;;;;;;14.23;8.20;;;;;;;;;;5155969;27;20121;-81
2022/01/15 09:23:53;;;;;;;13.13;7.88;;;;;;;;;;5155730;27;20123;-82
2022/01/15 09:26:22;;;;;;;14.95;9.30;;;;;;;;;;5156031;27;20050;-81
2022/01/15 09:31:33;;;;;;;15.30;9.45;;;;;;;;;;5155562;27;20042;-81
2022/01/15 09:33:59;;;;;;;17.17;10.07;;;;;;;;;;5155624;27;20078;-82
2022/01/15 09:36:25;;;;;;;17.70;10.45;;;;;;;;;;5137270;27;20057;-82
2022/01/15 09:38:52;;;;;;;19.15;11.73;;;;;;;;;;5120167;27;20049;-82
2022/01/15 09:41:19;;;;;;;19.33;10.80;;;;;;;;;;5155894;27;20142;-80
2022/01/15 09:43:45;;;;;;;18.60;11.40;;;;;;;;;;5155581;27;20039;-81
2022/01/15 09:46:11;;;;;;;17.90;10.20;;;;;;;;;;5155663;27;20042;-81
2022/01/15 09:48:38;;;;;;;15.05;9.63;;;;;;;;;;5155509;27;20046;-81
2022/01/15 09:51:05;;;;;;;15.65;9.27;;;;;;;;;;5155208;27;20113;-81
2022/01/15 09:53:33;;;;;;;15.43;9.45;;;;;;;;;;5155162;27;20092;-81
2022/01/15 09:56:00;;;;;;;15.65;9.50;;;;;;;;;;5136886;27;20039;-82
2022/01/15 09:58:26;;;;;;;15.43;9.45;;;;;;;;;;5155343;27;20475;-81
2022/01/15 10:00:52;;;;;;;14.95;9.95;;;;;;;;;;5155259;27;20042;-81
2022/01/15 10:03:19;;;;;;;19.52;16.08;;;;;;;;;;5136877;27;20046;-81
2022/01/15 10:05:47;;;;;;;20.40;17.27;;;;;;;;;;5155145;27;20086;-82
2022/01/15 10:08:17;;;;;;;16.38;13.75;;;;;;;;;;5154426;27;20146;-81
2022/01/15 10:10:47;;;;;;;18.58;15.27;;;;;;;;;;5154970;27;20045;-81
2022/01/15 10:13:18;;;;;;;18.67;15.93;;;;;;;;;;5155186;27;20053;-81
2022/01/15 10:15:45;;;;;;;17.45;14.73;;;;;;;;;;5154918;27;20034;-81
2022/01/15 10:18:18;;;;;;;16.85;15.05;;;;;;;;;;5136281;27;20125;-81
2022/01/15 10:20:44;;;;;;;18.75;15.77;;;;;;;;;;5136902;27;20387;-82
2022/01/15 10:23:17;;;;;;;19.92;17.40;;;;;;;;;;5154810;27;20417;-81
2022/01/15 10:25:43;;;;;;;19.73;17.70;;;;;;;;;;5154972;27;20436;-81
2022/01/15 10:28:09;;;;;;;21.02;18.83;;;;;;;;;;5154715;27;20065;-83
2022/01/15 10:30:36;;;;;;;21.60;18.95;;;;;;;;;;5136340;27;20099;-83
2022/01/15 10:33:04;;;;;;;20.45;18.02;;;;;;;;;;5154629;27;20042;-81
2022/01/15 10:35:34;;;;;;;20.65;18.27;;;;;;;;;;5136372;27;20049;-81
2022/01/15 10:38:02;;;;;;;20.50;15.57;;;;;;;;;;5136234;27;20122;-81
2022/01/15 10:40:29;;;;;;;21.27;16.10;;;;;;;;;;5154462;27;20042;-81
2022/01/15 10:42:59;;;;;;;22.55;16.40;;;;;;;;;;5154505;27;20050;-81
2022/01/15 10:45:29;;;;;;;26.05;17.83;;;;;;;;;;5119197;27;20049;-80
2022/01/15 10:47:57;;;;;;;24.95;18.35;;;;;;;;;;5154568;27;20042;-81
2022/01/15 10:50:27;;;;;;;26.65;18.60;;;;;;;;;;5154349;27;20049;-81
2022/01/15 10:52:54;;;;;;;24.30;17.30;;;;;;;;;;5154496;27;20046;-81
2022/01/15 10:55:30;;;;;;;24.90;17.13;;;;;;;;;;5135533;27;20041;-81
2022/01/15 10:57:58;;;;;;;28.15;17.95;;;;;;;;;;5154416;27;20129;-80
2022/01/15 11:00:25;;;;;;;29.88;19.40;;;;;;;;;;5136053;27;20133;-81
2022/01/15 11:02:56;;;;;;;33.90;21.52;;;;;;;;;;5135966;27;20055;-81
2022/01/15 11:05:48;;;;;;;32.70;23.27;;;;;;;;;;5154180;27;20043;-82
2022/01/15 11:08:14;;;;;;;34.90;22.02;;;;;;;;;;5149379;27;20086;-82
2022/01/15 11:10:51;;;;;;;34.50;23.55;;;;;;;;;;5154295;27;20042;-82
2022/01/15 11:13:23;;;;;;;33.40;24.98;;;;;;;;;;5154024;27;20043;-81
2022/01/15 11:15:50;;;;;;;35.33;25.50;;;;;;;;;;5135949;27;20042;-81
2022/01/15 11:18:30;;;;;;;36.17;25.88;;;;;;;;;;5154240;27;20492;-81
2022/01/15 11:20:57;;;;;;;33.78;24.73;;;;;;;;;;5158382;27;20111;-81
2022/01/15 11:23:25;;;;;;;34.45;24.83;;;;;;;;;;5158325;27;20043;-81
2022/01/15 11:25:51;;;;;;;33.55;22.75;;;;;;;;;;5158387;27;20243;-81
2022/01/15 11:28:25;;;;;;;31.63;22.38;;;;;;;;;;5139928;27;20464;-80
2022/01/15 11:30:54;;;;;;;30.35;21.23;;;;;;;;;;5157856;27;20073;-80
2022/01/15 11:33:24;;;;;;;30.23;22.75;;;;;;;;;;5158160;27;20070;-81
2022/01/15 11:35:51;;;;;;;32.42;22.45;;;;;;;;;;5158278;27;20082;-81
2022/01/15 11:38:36;;;;;;;24.48;18.95;;;;;;;;;;5158132;27;20053;-82
2022/01/15 11:41:02;;;;;;;27.52;19.98;;;;;;;;;;5158032;27;20048;-81
2022/01/15 11:43:30;;;;;;;24.17;16.95;;;;;;;;;;5139551;27;20118;-81
2022/01/15 11:46:03;;;;;;;23.13;17.25;;;;;;;;;;5139588;27;20039;-81
2022/01/15 11:48:33;;;;;;;22.52;16.50;;;;;;;;;;5139276;27;20446;-81
2022/01/15 11:51:14;;;;;;;22.52;16.27;;;;;;;;;;5139204;27;20046;-81
2022/01/15 11:53:57;;;;;;;20.33;15.65;;;;;;;;;;5157950;27;20502;-81
2022/01/15 11:56:23;;;;;;;19.98;15.68;;;;;;;;;;5139513;27;20054;-81
2022/01/15 11:58:51;;;;;;;21.73;15.68;;;;;;;;;;5139519;27;20413;-80
2022/01/15 12:01:36;;;;;;;20.00;16.13;;;;;;;;;;5139101;27;20079;-80
2022/01/15 12:04:21;;;;;;;21.00;15.73;;;;;;;;;;5139019;27;20087;-81
2022/01/15 12:07:02;;;;;;;17.58;13.32;;;;;;;;;;5157778;27;20041;-81
2022/01/15 12:09:32;;;;;;;17.77;13.32;;;;;;;;;;5157366;27;20038;-81
2022/01/15 12:11:58;;;;;;;16.42;12.35;;;;;;;;;;5157513;27;20173;-81
2022/01/15 12:14:43;;;;;;;15.82;12.18;;;;;;;;;;5157252;27;20046;-81
2022/01/15 12:17:27;;;;;;;16.50;12.50;;;;;;;;;;5157633;27;20453;-81
2022/01/15 12:19:53;;;;;;;16.15;11.98;;;;;;;;;;5138848;27;20047;-81
2022/01/15 12:22:39;;;;;;;15.70;12.20;;;;;;;;;;5157379;27;20074;-81
2022/01/15 12:25:08;;;;;;;15.73;11.98;;;;;;;;;;5156632;27;20479;-80
2022/01/15 12:27:35;;;;;;;16.45;12.20;;;;;;;;;;5157029;27;20093;-80
2022/01/15 12:30:05;;;;;;;15.45;12.30;;;;;;;;;;5156695;27;20121;-81
2022/01/15 12:32:32;;;;;;;15.52;12.55;;;;;;;;;;5156449;27;20042;-80
2022/01/15 12:34:59;;;;;;;15.35;11.73;;;;;;;;;;5157005;27;20043;-81
2022/01/15 12:37:25;;;;;;;14.52;11.52;;;;;;;;;;5138282;27;20038;-81
2022/01/15 12:39:51;;;;;;;16.20;12.45;;;;;;;;;;5138197;27;20038;-81
2022/01/15 12:42:18;;;;;;;15.20;12.25;;;;;;;;;;5157133;27;20046;-82
2022/01/15 12:44:46;;;;;;;17.80;12.15;;;;;;;;;;5156899;27;20046;-81
2022/01/15 12:47:13;;;;;;;14.77;11.13;;;;;;;;;;5138361;27;20038;-84
2022/01/15 12:49:40;;;;;;;14.38;11.23;;;;;;;;;;5138367;27;20095;-84
2022/01/15 12:52:07;;;;;;;15.27;12.15;;;;;;;;;;5138300;27;20034;-81
2022/01/15 12:54:33;;;;;;;16.02;12.18;;;;;;;;;;5156456;27;20388;-82
2022/01/15 12:57:00;;;;;;;16.45;12.32;;;;;;;;;;5156583;27;20050;-80
2022/01/15 12:59:28;;;;;;;16.27;12.55;;;;;;;;;;5156422;27;20383;-81
2022/01/15 13:01:55;;;;;;;16.23;13.23;;;;;;;;;;5138043;27;20102;-81
2022/01/15 13:04:21;;;;;;;16.50;12.50;;;;;;;;;;5156349;27;20148;-81
2022/01/15 13:06:50;;;;;;;17.17;13.38;;;;;;;;;;5156147;27;20047;-81
2022/01/15 13:09:17;;;;;;;18.02;13.35;;;;;;;;;;5156477;27;20265;-80
2022/01/15 13:11:48;;;;;;;17.70;13.82;;;;;;;;;;5156029;27;20050;-80
2022/01/15 13:14:15;;;;;;;17.08;12.93;;;;;;;;;;5156327;27;20050;-81
2022/01/15 13:16:41;;;;;;;18.60;12.95;;;;;;;;;;5156125;27;20042;-80
2022/01/15 13:19:07;;;;;;;16.20;13.63;;;;;;;;;;5156188;27;20058;-80
2022/01/15 13:21:35;;;;;;;16.48;13.00;;;;;;;;;;5156218;27;20103;-81
2022/01/15 13:24:03;;;;;;;15.68;12.27;;;;;;;;;;5155724;27;20050;-80
2022/01/15 13:26:35;;;;;;;17.48;13.07;;;;;;;;;;5156053;27;20050;-80
2022/01/15 13:29:03;;;;;;;15.75;12.27;;;;;;;;;;5155778;27;20487;-80
2022/01/15 13:31:33;;;;;;;17.45;12.98;;;;;;;;;;5155872;27;20387;-80
2022/01/15 13:34:10;;;;;;;16.98;12.55;;;;;;;;;;5155744;27;20039;-80
2022/01/15 13:36:37;;;;;;;16.30;12.63;;;;;;;;;;5155880;27;20061;-80
2022/01/15 13:39:04;;;;;;;16.45;13.13;;;;;;;;;;5155508;27;20039;-81
2022/01/15 13:41:34;;;;;;;16.23;12.43;;;;;;;;;;5155500;27;20051;-80
2022/01/15 13:44:05;;;;;;;15.85;12.30;;;;;;;;;;5137236;27;20082;-81
2022/01/15 13:46:34;;;;;;;17.45;13.23;;;;;;;;;;5136945;27;20125;-82
2022/01/15 13:49:04;;;;;;;16.63;13.48;;;;;;;;;;5155641;27;20038;-80
2022/01/15 13:54:16;;;;;;;17.15;12.77;;;;;;;;;;5155480;27;20042;-81
2022/01/15 13:56:44;;;;;;;19.17;13.80;;;;;;;;;;5119663;27;20046;-80
2022/01/15 13:59:13;;;;;;;19.58;14.23;;;;;;;;;;5136849;27;20035;-80
2022/01/15 14:01:59;;;;;;;16.58;13.30;;;;;;;;;;5155590;27;20051;-81
2022/01/15 14:04:27;;;;;;;19.08;13.52;;;;;;;;;;5155135;27;20117;-80
2022/01/15 14:06:57;;;;;;;20.42;14.40;;;;;;;;;;5155163;27;20047;-81
2022/01/15 14:09:24;;;;;;;19.00;13.80;;;;;;;;;;5136317;27;20043;-81
2022/01/15 14:11:57;;;;;;;20.02;14.52;;;;;;;;;;5155256;27;20043;-81
2022/01/15 14:14:23;;;;;;;21.85;15.40;;;;;;;;;;5136336;27;20039;-81
2022/01/15 14:16:56;;;;;;;23.17;15.52;;;;;;;;;;5155107;27;20046;-80
2022/01/15 14:19:38;;;;;;;21.55;16.02;;;;;;;;;;5155016;27;20041;-80
2022/01/15 14:22:08;;;;;;;;;;;;;;;;;;5155345;27;20046;-81
2022/01/15 14:24:34;;;;;;;23.08;16.98;;;;;;;;;;5154884;27;20001;-80
2022/01/15 14:27:00;;;;;;;23.95;17.60;;;;;;;;;;5154714;27;20097;-80
2022/01/15 14:29:28;;;;;;;22.95;17.52;;;;;;;;;;5154783;27;20126;-81
2022/01/15 14:31:59;;;;;;;24.10;18.08;;;;;;;;;;5118657;27;20120;-81
2022/01/15 14:34:25;;;;;;;23.15;17.45;;;;;;;;;;5136339;27;20067;-81
2022/01/15 14:36:53;;;;;;;24.92;17.38;;;;;;;;;;5136479;27;20134;-81
2022/01/15 14:39:19;;;;;;;24.90;17.77;;;;;;;;;;5154636;27;20054;-80
2022/01/15 14:41:46;;;;;;;23.15;17.60;;;;;;;;;;5154622;27;20088;-80
2022/01/15 14:44:12;;;;;;;23.90;18.00;;;;;;;;;;5154424;27;20034;-81
2022/01/15 14:46:39;;;;;;;21.10;16.95;;;;;;;;;;5154277;27;20046;-80
2022/01/15 14:49:05;;;;;;;22.92;17.92;;;;;;;;;;5154147;27;20039;-80
2022/01/15 14:51:31;;;;;;;24.50;17.92;;;;;;;;;;5154344;27;20039;-81
2022/01/15 14:53:57;;;;;;;24.52;17.42;;;;;;;;;;5153931;27;20431;-80
2022/01/15 14:56:23;;;;;;;25.73;18.92;;;;;;;;;;5154288;27;20636;-80